Etusivu
METAR-TAF:

METAR-TAF

Lentoasemat :

Bissau, Guinea-Bissau

Leveyspiiri: 11-53N, Pituuspiiri: 015-39W, korkeus merenpinnasta: 39 m

Tämänhetkinen sää

Tämä raportti tehtiin 13 tuntia ja 30 minuuttia sitten, kello 19.00 UTC
Tuuli 7 kn lounaasta, vaihdellen etelän ja lännen välillä
Lämpötila 30°C
Kosteus 62%
Ilmanpaine 1009 hPa
Näkyvyys 10 km tai enemmän
ei pilviä alle 1500 m:ssä eikä cumulonimbus-pilviä

METAR: GGOV 291900Z 22007KT 180V260 CAVOK 30/22 Q1009 NOSIG

Aika: 08:30 (08:30 UTC)

Sääennuste

Tämä raportti tehtiin 15 tuntia ja 30 minuuttia sitten, kello 17.00 UTC
Ennuste voimassa 29. päivästä klo 18 UTC - 30. päivään klo 18 UTC
Tuuli 7 kn lounaasta
Näkyvyys 10 km tai enemmän
ei pilviä alle 1500 m:ssä eikä cumulonimbus-pilviä

TAF: GGOV 291700Z 2918/3018 23007KT CAVOK

Säähavainnot ja -ennusteet yli 4000 lentoasemalta (METAR- ja TAF-raportit).

Käytössä olevat sääasemat on merkitty karttaan keltaisilla ja punaisilla pisteillä.

Aseta hiiri pisteen päälle nähdäksesi sääaseman nimen.

Klikkaa sitten nähdäksesi säähavainnot ja -ennusteet.

Kartan vaihtaminen: klikkaa mustalla rastilla varustettuja vihreitä pisteitä, niin voit zoomata sisään; viivalla varustettua vihreää pistettä, niin voit zoomata ulos tai vihreitä nuolia, niin pääset viereisille kartoille.


METAR-TAF: